createdAt,value
2018-06-18T00:00:27.980Z,21.29
2018-06-18T00:02:57.825Z,21.30
2018-06-18T00:05:27.688Z,21.27
2018-06-18T00:07:57.594Z,21.27
2018-06-18T00:10:27.672Z,21.32
2018-06-18T00:12:57.468Z,21.37
2018-06-18T00:15:27.305Z,21.34
2018-06-18T00:17:57.168Z,21.29
2018-06-18T00:20:27.049Z,21.36
2018-06-18T00:22:56.895Z,21.38
2018-06-18T00:25:26.697Z,21.43
2018-06-18T00:27:56.529Z,21.47
2018-06-18T00:30:26.537Z,21.36
2018-06-18T00:32:56.336Z,21.43
2018-06-18T00:35:26.172Z,21.46
2018-06-18T00:37:55.968Z,21.49
2018-06-18T00:40:25.795Z,21.52
2018-06-18T00:42:55.599Z,21.53
2018-06-18T00:45:25.440Z,21.55
2018-06-18T00:47:55.256Z,21.61
2018-06-18T00:50:25.090Z,21.54
2018-06-18T00:52:54.919Z,21.59
2018-06-18T00:55:35.556Z,21.64
2018-06-18T00:58:05.436Z,21.71
2018-06-18T01:00:35.308Z,21.63
2018-06-18T01:03:05.144Z,21.65
2018-06-18T01:05:34.992Z,21.70
2018-06-18T01:08:04.836Z,21.66
2018-06-18T01:10:34.740Z,21.63
2018-06-18T01:13:04.600Z,21.56
2018-06-18T01:15:34.423Z,21.54
2018-06-18T01:18:04.284Z,21.56
2018-06-18T01:20:34.116Z,21.60
2018-06-18T01:23:10.022Z,21.65
2018-06-18T01:25:40.160Z,21.64
2018-06-18T01:28:10.021Z,21.66
2018-06-18T01:30:39.860Z,21.65
2018-06-18T01:33:09.688Z,21.66
2018-06-18T01:35:39.528Z,21.69
2018-06-18T01:38:09.340Z,21.71
2018-06-18T01:40:39.187Z,21.61
2018-06-18T01:43:09.032Z,21.45
2018-06-18T01:45:38.844Z,21.41
2018-06-18T01:48:08.652Z,21.43
2018-06-18T01:50:38.492Z,21.23
2018-06-18T01:53:08.348Z,21.17
2018-06-18T01:55:38.170Z,21.12
2018-06-18T01:58:08.023Z,21.24
2018-06-18T02:00:37.829Z,21.27
2018-06-18T02:03:07.696Z,21.29
2018-06-18T02:05:37.556Z,21.27
2018-06-18T02:08:07.448Z,21.26
2018-06-18T02:10:37.265Z,21.32
2018-06-18T02:13:07.364Z,21.31
2018-06-18T02:15:37.183Z,21.26
2018-06-18T02:18:07.055Z,21.26
2018-06-18T02:20:36.940Z,21.27
2018-06-18T02:23:06.835Z,21.28
2018-06-18T02:25:36.679Z,21.27
2018-06-18T02:28:11.627Z,21.22
2018-06-18T02:30:46.550Z,21.23
2018-06-18T02:33:21.491Z,21.20
2018-06-18T02:35:56.356Z,21.08
2018-06-18T02:38:31.296Z,21.11
2018-06-18T02:41:01.107Z,21.15
2018-06-18T02:43:30.944Z,21.18
2018-06-18T02:46:00.799Z,21.09
2018-06-18T02:48:30.600Z,21.16
2018-06-18T02:51:00.458Z,21.20
2018-06-18T02:53:30.308Z,21.20
2018-06-18T02:56:00.544Z,21.15
2018-06-18T02:58:30.348Z,21.18
2018-06-18T03:01:00.232Z,21.23
2018-06-18T03:03:30.047Z,21.29
2018-06-18T03:05:59.929Z,21.33
2018-06-18T03:08:29.741Z,21.30
2018-06-18T03:10:59.524Z,21.22
2018-06-18T03:13:29.363Z,21.23
2018-06-18T03:15:59.309Z,21.17
2018-06-18T03:18:34.253Z,21.25
2018-06-18T03:23:13.314Z,21.37
2018-06-18T03:25:48.246Z,21.47
2018-06-18T03:28:23.166Z,21.45
2018-06-18T03:30:52.994Z,21.44
2018-06-18T03:33:22.821Z,21.50
2018-06-18T03:35:52.668Z,21.61
2018-06-18T03:38:22.486Z,21.67
2018-06-18T03:40:52.324Z,21.71
2018-06-18T03:43:22.140Z,21.77
2018-06-18T03:45:51.925Z,21.83
2018-06-18T03:48:21.794Z,22.04
2018-06-18T03:50:51.589Z,22.10
2018-06-18T03:53:21.457Z,22.16
2018-06-18T03:55:53.976Z,22.27
2018-06-18T03:58:23.795Z,22.31
2018-06-18T04:04:14.350Z,22.41
2018-06-18T04:06:49.192Z,22.38
2018-06-18T04:09:24.037Z,22.34
2018-06-18T04:11:58.881Z,22.37
2018-06-18T04:14:28.744Z,22.40
2018-06-18T04:16:58.589Z,22.45
2018-06-18T04:19:28.560Z,22.64
2018-06-18T04:21:58.404Z,22.69
2018-06-18T04:24:28.280Z,22.76
2018-06-18T04:26:58.383Z,22.76
2018-06-18T04:29:28.209Z,22.86
2018-06-18T04:31:58.008Z,22.95
2018-06-18T04:35:04.941Z,22.97
2018-06-18T04:37:34.757Z,22.94
2018-06-18T04:40:04.996Z,23.02
2018-06-18T04:42:39.880Z,23.05
2018-06-18T04:45:14.797Z,23.18
2018-06-18T04:47:49.596Z,23.31
2018-06-18T04:50:24.427Z,23.30
2018-06-18T04:52:54.287Z,23.40
2018-06-18T04:55:24.155Z,23.44
2018-06-18T04:57:53.972Z,23.54
2018-06-18T05:00:37.664Z,23.57
2018-06-18T05:03:08.093Z,23.76
2018-06-18T05:05:37.975Z,23.85
2018-06-18T05:10:18.589Z,23.88
2018-06-18T05:12:48.442Z,23.90
2018-06-18T05:15:19.096Z,23.91
2018-06-18T05:17:48.929Z,24.01
2018-06-18T05:20:19.415Z,24.13
2018-06-18T05:22:49.272Z,24.37
2018-06-18T05:25:19.100Z,24.48
2018-06-18T05:27:48.969Z,24.59
2018-06-18T05:30:21.681Z,24.59
2018-06-18T05:32:51.872Z,24.76
2018-06-18T05:35:21.922Z,24.80
2018-06-18T05:37:58.848Z,24.81
2018-06-18T05:40:29.043Z,25.00
2018-06-18T05:42:59.084Z,25.26
2018-06-18T05:45:28.888Z,25.50
2018-06-18T05:47:58.744Z,25.55
2018-06-18T05:50:28.697Z,25.72
2018-06-18T05:52:58.485Z,25.78
2018-06-18T05:55:28.365Z,25.95
2018-06-18T05:57:58.188Z,26.03
2018-06-18T06:00:28.084Z,25.96
2018-06-18T06:02:57.928Z,25.97
2018-06-18T06:05:27.772Z,25.87
2018-06-18T06:07:58.836Z,25.98
2018-06-18T06:10:42.608Z,26.21
2018-06-18T06:13:16.529Z,26.25
2018-06-18T06:15:52.808Z,26.47
2018-06-18T06:18:27.037Z,26.66
2018-06-18T06:21:03.242Z,26.79
2018-06-18T06:23:47.568Z,27.06
2018-06-18T06:26:20.660Z,27.14
2018-06-18T06:28:53.257Z,26.72
2018-06-18T06:31:23.296Z,27.60
2018-06-18T06:33:53.223Z,27.70
2018-06-18T06:36:25.693Z,27.85
2018-06-18T06:38:55.620Z,28.11
2018-06-18T06:41:27.031Z,28.02
2018-06-18T06:43:57.028Z,28.10
2018-06-18T06:46:26.856Z,28.10
2018-06-18T06:48:56.721Z,28.01
2018-06-18T06:51:26.838Z,28.05
2018-06-18T06:53:57.253Z,28.09
2018-06-18T06:56:27.204Z,28.35
2018-06-18T06:58:57.270Z,28.38
2018-06-18T07:01:27.136Z,28.86
2018-06-18T07:03:56.985Z,29.21
2018-06-18T07:06:26.948Z,29.19
2018-06-18T07:08:56.868Z,28.97
2018-06-18T07:11:26.860Z,28.98
2018-06-18T07:13:56.680Z,28.31
2018-06-18T07:16:26.701Z,28.67
2018-06-18T07:18:56.737Z,28.72
2018-06-18T07:21:26.597Z,28.71
2018-06-18T07:23:56.531Z,28.84
2018-06-18T07:26:26.372Z,29.16
2018-06-18T07:28:56.316Z,29.37
2018-06-18T07:31:26.336Z,29.31
2018-06-18T07:33:56.376Z,28.99
2018-06-18T07:36:26.248Z,29.29
2018-06-18T07:38:56.195Z,29.16
2018-06-18T07:41:26.076Z,29.27
2018-06-18T07:43:55.980Z,29.32
2018-06-18T07:46:25.965Z,29.49
2018-06-18T07:48:55.847Z,29.64
2018-06-18T07:51:25.729Z,29.67
2018-06-18T07:53:55.749Z,29.87
2018-06-18T07:56:25.674Z,30.01
2018-06-18T07:58:55.536Z,29.83
2018-06-18T08:01:25.416Z,29.92
2018-06-18T08:03:55.441Z,29.53
2018-06-18T08:06:25.300Z,29.42
2018-06-18T08:08:55.102Z,29.52
2018-06-18T08:11:24.977Z,29.77
2018-06-18T08:13:54.812Z,29.12
2018-06-18T08:16:24.688Z,29.87
2018-06-18T08:18:54.572Z,29.89
2018-06-18T08:21:25.684Z,29.94
2018-06-18T08:23:55.631Z,30.10
2018-06-18T08:26:25.569Z,29.99
2018-06-18T08:28:55.696Z,30.14
2018-06-18T08:31:25.653Z,30.46
2018-06-18T08:33:55.592Z,30.52
2018-06-18T08:36:25.821Z,30.68
2018-06-18T08:38:55.966Z,30.57
2018-06-18T08:41:25.800Z,30.33
2018-06-18T08:43:55.696Z,30.35
2018-06-18T08:46:25.594Z,30.63
2018-06-18T08:49:00.495Z,30.64
2018-06-18T08:51:35.392Z,30.68
2018-06-18T08:54:10.730Z,30.86
2018-06-18T08:56:45.778Z,30.67
2018-06-18T08:59:20.799Z,30.69
2018-06-18T09:01:51.245Z,30.92
2018-06-18T09:04:26.120Z,31.26
2018-06-18T09:07:01.017Z,31.31
2018-06-18T09:09:31.079Z,30.80
2018-06-18T09:12:01.035Z,31.30
2018-06-18T09:14:31.097Z,31.40
2018-06-18T09:17:01.045Z,31.39
2018-06-18T09:19:30.924Z,31.45
2018-06-18T09:22:00.776Z,31.24
2018-06-18T09:24:33.528Z,31.44
2018-06-18T09:27:08.612Z,31.44
2018-06-18T09:29:38.608Z,31.11
2018-06-18T09:32:13.564Z,31.38
2018-06-18T09:34:44.033Z,31.35
2018-06-18T09:37:13.892Z,31.34
2018-06-18T09:39:43.806Z,31.35
2018-06-18T09:42:13.761Z,31.39
2018-06-18T09:44:43.716Z,31.25
2018-06-18T09:47:13.616Z,31.33
2018-06-18T09:49:48.505Z,31.55
2018-06-18T09:52:23.414Z,31.55
2018-06-18T09:54:58.301Z,31.72
2018-06-18T09:57:33.127Z,31.44
2018-06-18T10:00:07.097Z,31.31
2018-06-18T10:02:37.011Z,31.03
2018-06-18T10:05:06.846Z,31.71
2018-06-18T10:07:36.722Z,31.68
2018-06-18T10:10:06.526Z,31.76
2018-06-18T10:12:36.387Z,31.95
2018-06-18T10:15:06.517Z,32.02
2018-06-18T10:17:36.373Z,31.32
2018-06-18T10:20:06.333Z,31.72
2018-06-18T10:22:36.193Z,31.94
2018-06-18T10:25:06.064Z,31.97
2018-06-18T10:27:35.865Z,31.96
2018-06-18T10:30:05.816Z,31.89
2018-06-18T10:32:40.647Z,31.94
2018-06-18T10:35:15.724Z,32.02
2018-06-18T10:37:50.712Z,32.18
2018-06-18T10:40:25.888Z,32.14
2018-06-18T10:43:00.896Z,32.08
2018-06-18T10:45:30.887Z,32.21
2018-06-18T10:48:00.879Z,32.34
2018-06-18T10:50:30.836Z,32.64
2018-06-18T10:53:00.637Z,32.89
2018-06-18T10:55:30.525Z,32.90
2018-06-18T10:58:00.388Z,33.02
2018-06-18T11:00:30.271Z,33.06
2018-06-18T11:03:00.076Z,32.33
2018-06-18T11:05:34.949Z,33.00
2018-06-18T11:08:05.017Z,32.94
2018-06-18T11:10:35.008Z,32.84
2018-06-18T11:13:04.916Z,32.25
2018-06-18T11:15:34.827Z,32.29
2018-06-18T11:18:09.820Z,32.34
2018-06-18T11:20:44.855Z,32.32
2018-06-18T11:23:19.692Z,32.07
2018-06-18T11:25:54.586Z,31.93
2018-06-18T11:28:24.514Z,31.76
2018-06-18T11:30:54.286Z,31.55
2018-06-18T11:33:24.126Z,31.32
2018-06-18T11:35:54.109Z,31.30
2018-06-18T11:38:24.007Z,31.18
2018-06-18T11:40:54.132Z,31.01
2018-06-18T11:43:24.103Z,30.98
2018-06-18T11:45:54.390Z,30.72
2018-06-18T11:48:24.443Z,30.53
2018-06-18T11:50:54.452Z,30.47
2018-06-18T11:53:24.347Z,30.14
2018-06-18T11:55:54.212Z,30.06
2018-06-18T11:58:29.351Z,30.11
2018-06-18T12:01:04.297Z,30.10
2018-06-18T12:03:39.328Z,30.02
2018-06-18T12:06:14.356Z,30.17
2018-06-18T12:08:49.310Z,30.24
2018-06-18T12:11:19.238Z,30.18
2018-06-18T12:13:49.425Z,30.18
2018-06-18T12:16:19.373Z,30.09
2018-06-18T12:18:49.256Z,30.21
2018-06-18T12:21:19.230Z,30.44
2018-06-18T12:23:49.073Z,30.75
2018-06-18T12:26:18.963Z,30.59
2018-06-18T12:28:48.860Z,31.10
2018-06-18T12:31:18.748Z,31.14
2018-06-18T12:33:49.072Z,31.15
2018-06-18T12:36:18.956Z,31.17
2018-06-18T12:38:48.808Z,31.07
2018-06-18T12:41:19.112Z,31.20
2018-06-18T12:43:53.585Z,31.22
2018-06-18T12:46:28.582Z,31.04
2018-06-18T12:49:03.392Z,31.17
2018-06-18T12:51:38.371Z,31.22
2018-06-18T12:54:13.272Z,30.99
2018-06-18T12:56:48.288Z,30.73
2018-06-18T12:59:18.246Z,30.59
2018-06-18T13:01:51.476Z,30.33
2018-06-18T13:04:21.475Z,30.12
2018-06-18T13:06:52.061Z,29.83
2018-06-18T13:09:21.896Z,29.48
2018-06-18T13:11:51.775Z,29.30
2018-06-18T13:14:21.592Z,29.14
2018-06-18T13:16:51.486Z,29.06
2018-06-18T13:19:21.464Z,28.69
2018-06-18T13:21:51.599Z,28.56
2018-06-18T13:24:21.428Z,28.21
2018-06-18T13:26:51.354Z,27.89
2018-06-18T13:29:21.406Z,27.22
2018-06-18T13:31:51.388Z,27.06
2018-06-18T13:34:21.254Z,26.97
2018-06-18T13:36:55.337Z,26.75
2018-06-18T13:39:30.420Z,26.65
2018-06-18T13:44:06.624Z,26.50
2018-06-18T13:46:41.460Z,26.40
2018-06-18T13:49:11.299Z,26.27
2018-06-18T13:51:41.181Z,26.24
2018-06-18T13:54:11.037Z,26.26
2018-06-18T13:56:40.944Z,26.21
2018-06-18T13:59:10.828Z,25.42
2018-06-18T14:01:40.770Z,26.02
2018-06-18T14:04:10.670Z,25.90
2018-06-18T14:06:40.493Z,25.88
2018-06-18T14:09:10.496Z,25.85
2018-06-18T14:11:40.529Z,25.66
2018-06-18T14:14:10.450Z,25.48
2018-06-18T14:16:40.384Z,25.38
2018-06-18T14:19:15.400Z,25.03
2018-06-18T14:21:45.335Z,24.78
2018-06-18T14:24:15.382Z,24.64
2018-06-18T14:26:45.224Z,24.34
2018-06-18T14:29:20.240Z,24.23
2018-06-18T14:31:55.156Z,24.15
2018-06-18T14:36:31.249Z,24.00
2018-06-18T14:39:06.012Z,23.88
2018-06-18T14:41:36.709Z,23.86
2018-06-18T14:44:06.548Z,23.86
2018-06-18T14:46:36.348Z,23.86
2018-06-18T14:49:06.340Z,23.84
2018-06-18T14:51:36.193Z,23.86
2018-06-18T14:54:06.081Z,23.91
2018-06-18T14:56:36.848Z,23.96
2018-06-18T14:59:11.313Z,23.98
2018-06-18T15:01:41.301Z,23.95
2018-06-18T15:04:11.136Z,23.91
2018-06-18T15:06:40.993Z,24.05
2018-06-18T15:09:12.339Z,24.17
2018-06-18T15:11:42.532Z,24.29
2018-06-18T15:14:12.501Z,24.45
2018-06-18T15:16:42.284Z,24.52
2018-06-18T15:19:12.198Z,24.62
2018-06-18T15:21:46.292Z,24.67
2018-06-18T15:24:20.464Z,24.75
2018-06-18T15:26:50.326Z,24.83
2018-06-18T15:29:20.153Z,24.90
2018-06-18T15:31:50.025Z,25.00
2018-06-18T15:34:19.856Z,25.12
2018-06-18T15:36:49.745Z,25.17
2018-06-18T15:39:19.624Z,25.27
2018-06-18T15:41:49.501Z,25.36
2018-06-18T15:44:19.297Z,25.35
2018-06-18T15:46:49.276Z,25.50
2018-06-18T15:49:19.139Z,25.51
2018-06-18T15:51:48.928Z,25.64
2018-06-18T15:54:18.807Z,25.73
2018-06-18T15:56:48.853Z,25.82
2018-06-18T15:59:18.716Z,25.75
2018-06-18T16:01:48.554Z,25.71
2018-06-18T16:04:18.403Z,25.86
2018-06-18T16:06:48.227Z,25.93
2018-06-18T16:09:18.099Z,25.96
2018-06-18T16:11:47.935Z,26.03
2018-06-18T16:14:17.764Z,26.09
2018-06-18T16:16:47.663Z,26.08
2018-06-18T16:19:17.496Z,26.06
2018-06-18T16:21:47.393Z,25.94
2018-06-18T16:24:17.264Z,26.05
2018-06-18T16:26:47.095Z,26.05
2018-06-18T16:29:16.928Z,25.99
2018-06-18T16:31:46.804Z,25.93
2018-06-18T16:34:16.631Z,25.89
2018-06-18T16:36:46.472Z,25.86
2018-06-18T16:39:16.268Z,25.88
2018-06-18T16:41:46.110Z,24.95
2018-06-18T16:44:15.936Z,25.87
2018-06-18T16:46:45.767Z,25.68
2018-06-18T16:49:15.652Z,25.63
2018-06-18T16:51:45.492Z,25.49
2018-06-18T16:54:15.355Z,25.33
2018-06-18T16:56:45.192Z,25.21
2018-06-18T16:59:15.004Z,25.20
2018-06-18T17:01:44.864Z,25.34
2018-06-18T17:04:14.725Z,25.32
2018-06-18T17:06:44.548Z,25.08
2018-06-18T17:09:14.382Z,24.99
2018-06-18T17:11:44.204Z,24.21
2018-06-18T17:14:14.025Z,24.82
2018-06-18T17:16:43.946Z,24.93
2018-06-18T17:19:13.697Z,24.94
2018-06-18T17:21:43.616Z,24.89
2018-06-18T17:24:13.407Z,24.81
2018-06-18T17:26:43.240Z,24.73
2018-06-18T17:29:13.109Z,24.54
2018-06-18T17:31:42.939Z,24.48
2018-06-18T17:34:12.856Z,24.51
2018-06-18T17:36:42.680Z,24.49
2018-06-18T17:39:13.783Z,24.47
2018-06-18T17:41:43.567Z,24.27
2018-06-18T17:44:13.449Z,24.21
2018-06-18T17:46:43.280Z,24.25
2018-06-18T17:49:13.076Z,24.05
2018-06-18T17:51:42.988Z,24.02
2018-06-18T17:54:12.829Z,24.00
2018-06-18T17:56:42.703Z,23.93
2018-06-18T17:59:12.516Z,24.01
2018-06-18T18:01:42.460Z,23.89
2018-06-18T18:04:12.273Z,23.94
2018-06-18T18:06:42.187Z,23.89
2018-06-18T18:09:12.186Z,23.87
2018-06-18T18:11:42.137Z,23.85
2018-06-18T18:14:11.970Z,23.86
2018-06-18T18:16:41.814Z,23.62
2018-06-18T18:19:11.617Z,23.51
2018-06-18T18:21:41.496Z,23.26
2018-06-18T18:24:11.348Z,23.13
2018-06-18T18:26:41.184Z,23.02
2018-06-18T18:29:11.024Z,23.05
2018-06-18T18:31:40.943Z,23.00
2018-06-18T18:34:10.752Z,22.89
2018-06-18T18:36:40.592Z,22.87
2018-06-18T18:39:10.876Z,22.82
2018-06-18T18:41:40.778Z,22.85
2018-06-18T18:44:11.060Z,22.90
2018-06-18T18:46:40.905Z,22.79
2018-06-18T18:49:10.803Z,22.86
2018-06-18T18:51:40.596Z,22.80
2018-06-18T18:54:23.377Z,22.79
2018-06-18T18:57:03.980Z,22.84
2018-06-18T18:59:35.252Z,22.76
2018-06-18T19:02:05.121Z,22.65
2018-06-18T19:04:55.572Z,22.63
2018-06-18T19:07:30.929Z,22.49
2018-06-18T19:10:13.058Z,22.42
2018-06-18T19:12:42.958Z,22.38
2018-06-18T19:15:12.792Z,22.37
2018-06-18T19:17:42.644Z,22.47
2018-06-18T19:20:20.489Z,22.49
2018-06-18T19:22:50.312Z,22.37
2018-06-18T19:25:20.153Z,22.34
2018-06-18T19:27:49.980Z,22.25
2018-06-18T19:30:19.813Z,22.28
2018-06-18T19:32:50.260Z,22.25
2018-06-18T19:35:20.088Z,22.15
2018-06-18T19:37:49.917Z,22.10
2018-06-18T19:40:19.765Z,22.08
2018-06-18T19:42:49.591Z,22.01
2018-06-18T19:45:21.076Z,21.97
2018-06-18T19:48:01.253Z,22.00
2018-06-18T19:50:31.182Z,21.97
2018-06-18T19:53:01.124Z,21.98
2018-06-18T19:55:32.770Z,21.91
2018-06-18T19:58:02.638Z,21.92
2018-06-18T20:00:38.848Z,21.92
2018-06-18T20:03:08.719Z,21.86
2018-06-18T20:05:38.640Z,21.83
2018-06-18T20:08:11.390Z,21.80
2018-06-18T20:10:41.241Z,21.83
2018-06-18T20:13:11.094Z,21.79
2018-06-18T20:15:40.981Z,21.75
2018-06-18T20:18:10.772Z,21.75
2018-06-18T20:20:40.664Z,21.69
2018-06-18T20:23:13.548Z,21.61
2018-06-18T20:25:49.616Z,21.71
2018-06-18T20:28:19.484Z,21.55
2018-06-18T20:30:49.293Z,21.54
2018-06-18T20:33:20.257Z,21.59
2018-06-18T20:35:58.156Z,21.53
2018-06-18T20:38:27.965Z,21.66
2018-06-18T20:40:57.835Z,21.66
2018-06-18T20:43:30.521Z,21.72
2018-06-18T20:46:00.329Z,21.71
2018-06-18T20:48:30.181Z,21.66
2018-06-18T20:51:00.017Z,21.72
2018-06-18T20:53:29.861Z,21.73
2018-06-18T20:55:59.657Z,21.62
2018-06-18T20:58:29.492Z,21.54
2018-06-18T21:00:59.392Z,21.59
2018-06-18T21:03:29.127Z,21.59
2018-06-18T21:05:58.931Z,21.71
2018-06-18T21:08:28.672Z,21.65
2018-06-18T21:10:58.518Z,21.75
2018-06-18T21:13:28.255Z,21.76
2018-06-18T21:15:58.168Z,21.69
2018-06-18T21:18:27.946Z,21.67
2018-06-18T21:20:57.745Z,21.70
2018-06-18T21:23:27.514Z,21.72
2018-06-18T21:25:57.271Z,21.72
2018-06-18T21:28:27.024Z,20.90
2018-06-18T21:30:56.799Z,21.70
2018-06-18T21:33:26.591Z,21.70
2018-06-18T21:35:56.371Z,21.77
2018-06-18T21:38:26.145Z,21.76
2018-06-18T21:40:55.931Z,21.72
2018-06-18T21:43:25.828Z,21.66
2018-06-18T21:45:55.591Z,21.73
2018-06-18T21:48:25.347Z,21.72
2018-06-18T21:50:55.173Z,21.84
2018-06-18T21:53:24.993Z,21.92
2018-06-18T21:55:54.863Z,21.84
2018-06-18T21:58:24.676Z,21.83
2018-06-18T22:00:54.576Z,21.85
2018-06-18T22:03:24.460Z,21.81
2018-06-18T22:05:54.376Z,21.91
2018-06-18T22:08:25.618Z,21.97
2018-06-18T22:10:55.489Z,22.01
2018-06-18T22:13:25.395Z,21.96
2018-06-18T22:15:55.268Z,21.98
2018-06-18T22:18:25.160Z,21.99
2018-06-18T22:20:54.965Z,21.99
2018-06-18T22:23:24.864Z,21.98
2018-06-18T22:25:54.706Z,21.95
2018-06-18T22:28:31.572Z,22.01
2018-06-18T22:31:01.460Z,22.09
2018-06-18T22:33:31.347Z,22.10
2018-06-18T22:36:01.257Z,22.08
2018-06-18T22:38:31.168Z,22.02
2018-06-18T22:41:01.003Z,22.05
2018-06-18T22:43:30.864Z,22.07
2018-06-18T22:46:00.784Z,22.05
2018-06-18T22:48:30.653Z,22.02
2018-06-18T22:51:00.522Z,22.07
2018-06-18T22:53:30.329Z,22.06
2018-06-18T22:56:00.177Z,21.88
2018-06-18T22:58:30.033Z,21.88
2018-06-18T23:01:00.764Z,21.77
2018-06-18T23:03:30.638Z,21.79
2018-06-18T23:06:00.648Z,21.74
2018-06-18T23:08:30.493Z,21.72
2018-06-18T23:11:00.387Z,21.71
2018-06-18T23:13:32.500Z,21.49
2018-06-18T23:16:03.367Z,21.53
2018-06-18T23:18:33.248Z,21.55
2018-06-18T23:21:03.124Z,21.54
2018-06-18T23:23:33.012Z,21.53
2018-06-18T23:26:02.950Z,21.44
2018-06-18T23:28:40.988Z,21.53
2018-06-18T23:31:10.828Z,21.45
2018-06-18T23:33:40.683Z,21.44
2018-06-18T23:36:10.556Z,21.50
2018-06-18T23:38:40.364Z,21.47
2018-06-18T23:41:10.260Z,21.40
2018-06-18T23:43:40.103Z,21.36
2018-06-18T23:46:09.925Z,21.37
2018-06-18T23:48:39.768Z,21.43
2018-06-18T23:51:09.605Z,21.36
2018-06-18T23:53:39.504Z,21.38
2018-06-18T23:56:09.332Z,21.39
2018-06-18T23:58:39.196Z,21.30
